Terminal Aerodrome Forecast
Issued by NWS Jacksonville, FL

Home | Current Version | Previous Version | Text Only | Print | Product List | Glossary On
Versions: 1 2 3 4 5 6 7 8 9 10 11 12 13 14 15 16 17 18 19 20 21 22 23 24 25 26 27 28 29 30 31 32 33 34 35 36
000
FTUS42 KJAX 272349
TAFGNV
TAF
KGNV 272349Z 2800/2824 26008KT 6SM -RA SCT025 BKN120
     FM280300 14004KT 6SM -RA BKN025 OVC050
     FM280600 06004KT 5SM BR VCSH BKN015 OVC025
     FM281400 09007KT P6SM -SHRA OVC020=

USA.gov is the U.S. government's official web portal to all federal, state and local government web resources and services.